Time;durP1;ratioP1;P1;durP2;ratioP2;P2;SDS_P1;SDS_P2;PMS_P1;PMS_P2;Temp;Humidity;BMP_temperature;BMP_pressure;BME280_temperature;BME280_humidity;BME280_pressure;Samples;Min_cycle;Max_cycle;Signal;HPM_P1;HPM_P2
2024/01/07 00:00:18;;;;;;;15.52;8.07;;;4.00;99.90;;;;;;5041901;28;20212;-74
2024/01/07 00:02:44;;;;;;;14.35;8.00;;;4.00;99.90;;;;;;5045832;28;20013;-73
2024/01/07 00:05:10;;;;;;;16.15;8.10;;;3.90;99.90;;;;;;5060895;28;20039;-74
2024/01/07 00:07:36;;;;;;;13.75;8.50;;;3.80;99.90;;;;;;5057099;28;20027;-74
2024/01/07 00:10:02;;;;;;;16.45;8.90;;;3.90;99.90;;;;;;5062235;28;20070;-73
2024/01/07 00:12:27;;;;;;;16.38;8.20;;;3.90;99.90;;;;;;5055806;28;20056;-73
2024/01/07 00:14:53;;;;;;;14.23;7.68;;;3.90;99.90;;;;;;5061718;28;20309;-73
2024/01/07 00:17:19;;;;;;;13.63;7.85;;;3.80;99.90;;;;;;5061842;28;20059;-73
2024/01/07 00:19:44;;;;;;;13.77;8.52;;;3.70;99.90;;;;;;5059299;28;20036;-73
2024/01/07 00:22:10;;;;;;;17.75;8.98;;;3.70;99.90;;;;;;5057212;28;20237;-74
2024/01/07 00:24:36;;;;;;;18.80;9.35;;;3.70;99.90;;;;;;5062088;28;20017;-73
2024/01/07 00:27:02;;;;;;;19.30;9.23;;;3.70;99.90;;;;;;5057141;28;20108;-73
2024/01/07 00:29:27;;;;;;;16.58;9.38;;;3.70;99.90;;;;;;5041942;28;20036;-72
2024/01/07 00:31:53;;;;;;;14.75;8.60;;;3.80;99.90;;;;;;5055268;28;20120;-73
2024/01/07 00:34:19;;;;;;;17.58;8.52;;;3.80;99.90;;;;;;5055023;28;20044;-73
2024/01/07 00:36:44;;;;;;;14.90;7.70;;;3.70;99.90;;;;;;5061407;28;20073;-72
2024/01/07 00:39:10;;;;;;;17.60;10.20;;;3.70;99.90;;;;;;5055420;28;20039;-72
2024/01/07 00:41:36;;;;;;;14.63;7.95;;;3.60;99.90;;;;;;5033569;28;20088;-72
2024/01/07 00:44:01;;;;;;;16.75;8.48;;;3.60;99.90;;;;;;5057784;28;20025;-73
2024/01/07 00:46:27;;;;;;;14.98;8.27;;;3.60;99.90;;;;;;5057955;28;20028;-72
2024/01/07 00:48:53;;;;;;;16.08;9.40;;;3.60;99.90;;;;;;5052657;28;20477;-73
2024/01/07 00:51:18;;;;;;;16.45;8.23;;;3.60;99.90;;;;;;5059165;28;20017;-72
2024/01/07 00:53:44;;;;;;;15.05;8.38;;;3.50;99.90;;;;;;5059163;28;20461;-72
2024/01/07 00:56:10;;;;;;;17.35;8.40;;;3.50;99.90;;;;;;5058615;28;20036;-72
2024/01/07 00:58:36;;;;;;;13.52;8.68;;;3.50;99.90;;;;;;5056571;28;20127;-73
2024/01/07 01:01:02;;;;;;;19.00;9.00;;;3.50;99.90;;;;;;5054756;28;20025;-72
2024/01/07 01:03:28;;;;;;;18.67;8.48;;;3.50;99.90;;;;;;5060848;28;20025;-73
2024/01/07 01:05:54;;;;;;;17.58;9.18;;;3.60;99.90;;;;;;5053915;28;20193;-73
2024/01/07 01:08:20;;;;;;;17.35;8.52;;;3.60;99.90;;;;;;5057109;28;20328;-73
2024/01/07 01:10:45;;;;;;;16.00;8.60;;;3.60;99.90;;;;;;5053427;28;20037;-74
2024/01/07 01:13:11;;;;;;;14.25;7.57;;;3.60;99.90;;;;;;5051819;28;20159;-73
2024/01/07 01:15:37;;;;;;;13.35;8.27;;;3.60;99.90;;;;;;5052792;28;20033;-74
2024/01/07 01:18:02;;;;;;;16.92;8.20;;;3.50;99.90;;;;;;5052674;28;20520;-73
2024/01/07 01:20:28;;;;;;;13.38;7.55;;;2.90;99.90;;;;;;5051841;28;20204;-72
2024/01/07 01:22:54;;;;;;;14.45;6.93;;;3.50;99.90;;;;;;5052913;28;20033;-73
2024/01/07 01:25:20;;;;;;;6.78;4.65;;;3.50;99.90;;;;;;5053556;28;20421;-72
2024/01/07 01:27:46;;;;;;;15.57;7.68;;;3.40;99.90;;;;;;5052154;28;20013;-72
2024/01/07 01:30:13;;;;;;;9.23;5.63;;;3.50;99.90;;;;;;5052779;28;20086;-73
2024/01/07 01:32:39;;;;;;;12.50;6.30;;;3.50;99.90;;;;;;5053135;28;20364;-72
2024/01/07 01:35:05;;;;;;;9.70;5.60;;;3.50;99.90;;;;;;5052239;28;20106;-73
2024/01/07 01:37:34;;;;;;;9.52;6.03;;;3.50;99.90;;;;;;5051875;28;20024;-71
2024/01/07 01:40:00;;;;;;;9.82;6.03;;;3.40;99.90;;;;;;5050700;28;20037;-73
2024/01/07 01:42:26;;;;;;;9.57;4.97;;;3.40;99.90;;;;;;5052434;28;20250;-73
2024/01/07 01:44:53;;;;;;;8.73;5.00;;;3.30;99.90;;;;;;5052667;28;20358;-73
2024/01/07 01:47:19;;;;;;;9.00;4.18;;;3.40;99.90;;;;;;5049190;28;20547;-73
2024/01/07 01:49:46;;;;;;;8.30;3.90;;;3.40;99.90;;;;;;5050527;28;20032;-74
2024/01/07 01:52:13;;;;;;;7.13;4.53;;;3.40;99.90;;;;;;5050542;28;20016;-73
2024/01/07 01:54:39;;;;;;;6.25;4.03;;;3.30;99.90;;;;;;5051753;28;20039;-74
2024/01/07 01:57:05;;;;;;;6.55;3.88;;;3.30;99.90;;;;;;5049155;28;20480;-73
2024/01/07 01:59:33;;;;;;;10.93;4.35;;;3.30;99.90;;;;;;5054572;28;20100;-73
2024/01/07 02:02:00;;;;;;;6.93;3.92;;;3.40;99.90;;;;;;5051504;28;20017;-73
2024/01/07 02:04:26;;;;;;;10.75;5.15;;;3.40;99.90;;;;;;5050082;28;20253;-73
2024/01/07 02:06:51;;;;;;;7.88;4.70;;;3.30;99.90;;;;;;5050654;28;20308;-73
2024/01/07 02:09:17;;;;;;;8.23;4.80;;;3.30;99.90;;;;;;5059069;28;20244;-73
2024/01/07 02:11:43;;;;;;;10.10;4.93;;;3.30;99.90;;;;;;5059419;28;20021;-73
2024/01/07 02:14:08;;;;;;;7.05;4.82;;;3.30;99.90;;;;;;5060023;28;20055;-73
2024/01/07 02:16:34;;;;;;;13.43;6.07;;;3.30;99.90;;;;;;5056860;28;20059;-73
2024/01/07 02:19:00;;;;;;;8.05;4.65;;;3.30;99.90;;;;;;5058038;28;20100;-72
2024/01/07 02:21:25;;;;;;;10.60;5.28;;;3.40;99.90;;;;;;5060025;28;20104;-72
2024/01/07 02:23:51;;;;;;;10.57;6.75;;;3.40;99.90;;;;;;5059633;28;20454;-72
2024/01/07 02:26:17;;;;;;;12.77;6.25;;;3.30;99.90;;;;;;5059839;28;20020;-72
2024/01/07 02:28:43;;;;;;;11.13;7.05;;;3.30;99.90;;;;;;5061281;28;20013;-73
2024/01/07 02:31:08;;;;;;;12.55;6.10;;;3.30;99.90;;;;;;5064206;28;20020;-73
2024/01/07 02:33:34;;;;;;;9.93;5.45;;;3.30;99.90;;;;;;5063843;28;20050;-73
2024/01/07 02:36:00;;;;;;;11.07;5.78;;;3.40;99.90;;;;;;5062650;28;20013;-72
2024/01/07 02:38:25;;;;;;;9.77;5.90;;;3.40;99.90;;;;;;5045264;28;20356;-73
2024/01/07 02:40:51;;;;;;;10.35;5.13;;;3.40;99.90;;;;;;5063299;28;20251;-72
2024/01/07 02:43:16;;;;;;;7.57;4.60;;;3.40;99.90;;;;;;5063270;28;20085;-72
2024/01/07 02:45:42;;;;;;;6.93;4.32;;;3.30;99.90;;;;;;5062130;28;20017;-72
2024/01/07 02:48:08;;;;;;;8.85;4.60;;;3.40;99.90;;;;;;5062271;28;20013;-72
2024/01/07 02:50:33;;;;;;;9.40;4.82;;;3.30;99.90;;;;;;5061915;28;20031;-72
2024/01/07 02:52:59;;;;;;;6.25;4.35;;;3.30;99.90;;;;;;5061945;28;20016;-72
2024/01/07 02:55:25;;;;;;;11.05;5.93;;;3.30;99.90;;;;;;5061877;28;20092;-72
2024/01/07 02:57:50;;;;;;;10.50;6.13;;;3.30;99.90;;;;;;5044010;28;20178;-72
2024/01/07 03:00:16;;;;;;;9.90;5.93;;;3.20;99.90;;;;;;5063395;28;20029;-73
2024/01/07 03:02:42;;;;;;;15.55;7.22;;;3.30;99.90;;;;;;5044803;28;20059;-72
2024/01/07 03:05:08;;;;;;;11.82;6.13;;;3.30;99.90;;;;;;5062063;28;20021;-72
2024/01/07 03:07:34;;;;;;;9.45;5.80;;;3.30;99.90;;;;;;5062096;28;20020;-72
2024/01/07 03:09:59;;;;;;;13.90;6.35;;;3.30;99.90;;;;;;5062355;28;20092;-72
2024/01/07 03:12:25;;;;;;;7.97;4.93;;;3.20;99.90;;;;;;5062069;28;20032;-72
2024/01/07 03:14:51;;;;;;;10.05;5.05;;;3.30;99.90;;;;;;5061796;28;20056;-73
2024/01/07 03:17:17;;;;;;;13.73;6.07;;;3.30;99.90;;;;;;5062719;28;20025;-72
2024/01/07 03:19:43;;;;;;;10.02;3.92;;;3.20;99.90;;;;;;5062695;28;20037;-72
2024/01/07 03:22:08;;;;;;;12.55;6.38;;;3.20;99.90;;;;;;5044368;28;20068;-72
2024/01/07 03:24:34;;;;;;;10.50;5.22;;;3.20;99.90;;;;;;5061857;28;20047;-72
2024/01/07 03:27:00;;;;;;;16.13;8.07;;;3.10;99.90;;;;;;5061770;28;20028;-72
2024/01/07 03:29:25;;;;;;;13.80;7.20;;;3.00;99.90;;;;;;5060951;28;20123;-72
2024/01/07 03:31:52;;;;;;;11.63;6.30;;;3.10;99.90;;;;;;5062281;28;20025;-72
2024/01/07 03:34:19;;;;;;;11.00;6.03;;;3.00;99.90;;;;;;5061537;28;20059;-72
2024/01/07 03:36:44;;;;;;;11.02;7.07;;;3.00;99.90;;;;;;5061897;28;20025;-72
2024/01/07 03:39:10;;;;;;;11.57;5.75;;;3.00;99.90;;;;;;5061007;28;20304;-72
2024/01/07 03:41:36;;;;;;;11.00;6.38;;;3.00;99.90;;;;;;5061211;28;20013;-72
2024/01/07 03:44:02;;;;;;;8.32;4.65;;;3.00;99.90;;;;;;5043995;28;20318;-72
2024/01/07 03:46:27;;;;;;;12.40;5.70;;;3.00;99.90;;;;;;5061631;28;20317;-72
2024/01/07 03:48:53;;;;;;;14.88;6.63;;;3.00;99.90;;;;;;5061654;28;20240;-72
2024/01/07 03:51:19;;;;;;;13.25;6.13;;;3.00;99.90;;;;;;5060957;28;20052;-72
2024/01/07 03:53:44;;;;;;;12.13;5.38;;;2.90;99.90;;;;;;5061678;28;20254;-72
2024/01/07 03:56:10;;;;;;;17.45;9.60;;;2.90;99.90;;;;;;5043638;28;20029;-71
2024/01/07 03:58:36;;;;;;;10.90;6.50;;;2.90;99.90;;;;;;5060718;28;20078;-72
2024/01/07 04:01:01;;;;;;;15.65;7.72;;;2.90;99.90;;;;;;5061254;28;20025;-72
2024/01/07 04:03:27;;;;;;;16.35;7.88;;;2.90;99.90;;;;;;5060548;28;20021;-72
2024/01/07 04:05:53;;;;;;;8.13;5.15;;;2.80;99.90;;;;;;5043988;28;20025;-73
2024/01/07 04:08:18;;;;;;;12.98;6.78;;;2.80;99.90;;;;;;5060632;28;20221;-72
2024/01/07 04:10:44;;;;;;;11.65;6.72;;;2.90;99.90;;;;;;5060488;28;20029;-73
2024/01/07 04:13:10;;;;;;;12.75;6.47;;;2.80;99.90;;;;;;5061346;28;20088;-73
2024/01/07 04:15:35;;;;;;;10.43;6.32;;;2.80;99.90;;;;;;5061168;28;20836;-72
2024/01/07 04:18:03;;;;;;;14.23;7.28;;;2.90;99.90;;;;;;5060295;28;20048;-73
2024/01/07 04:20:29;;;;;;;11.25;6.88;;;2.80;99.90;;;;;;5061245;28;20043;-73
2024/01/07 04:22:55;;;;;;;12.60;6.35;;;2.80;99.90;;;;;;5042898;28;20071;-73
2024/01/07 04:25:20;;;;;;;11.68;6.82;;;2.80;99.90;;;;;;5059928;28;20313;-73
2024/01/07 04:27:46;;;;;;;11.32;6.93;;;2.80;99.90;;;;;;5060564;28;20017;-73
2024/01/07 04:30:12;;;;;;;11.85;5.25;;;2.80;99.90;;;;;;5060317;28;20462;-72
2024/01/07 04:32:38;;;;;;;10.98;5.95;;;2.80;99.90;;;;;;5060101;28;20402;-72
2024/01/07 04:35:04;;;;;;;14.52;8.45;;;2.70;99.90;;;;;;5060180;28;20059;-73
2024/01/07 04:37:29;;;;;;;14.52;6.28;;;2.70;99.90;;;;;;5042305;28;20040;-72
2024/01/07 04:39:55;;;;;;;8.10;4.75;;;2.80;99.90;;;;;;5042828;28;20040;-73
2024/01/07 04:42:20;;;;;;;8.25;4.65;;;2.70;99.90;;;;;;5060753;28;20206;-73
2024/01/07 04:44:46;;;;;;;10.60;5.75;;;2.70;99.90;;;;;;5042765;28;20033;-73
2024/01/07 04:47:34;;;;;;;14.95;7.22;;;2.70;99.90;;;;;;5059991;28;20024;-73
2024/01/07 04:50:00;;;;;;;8.40;4.72;;;2.60;99.90;;;;;;5042702;28;20017;-73
2024/01/07 04:52:26;;;;;;;11.15;6.15;;;2.50;99.90;;;;;;5041394;28;20350;-72
2024/01/07 04:54:53;;;;;;;13.93;6.78;;;2.60;99.90;;;;;;5060392;28;20013;-72
2024/01/07 04:57:19;;;;;;;14.27;8.60;;;2.50;99.90;;;;;;5042281;28;20021;-72
2024/01/07 04:59:45;;;;;;;12.00;6.22;;;2.50;99.90;;;;;;5042607;28;20060;-73
2024/01/07 05:02:11;;;;;;;13.93;7.00;;;2.50;99.90;;;;;;5060024;28;20066;-72
2024/01/07 05:04:37;;;;;;;10.48;5.18;;;2.50;99.90;;;;;;5060864;28;20096;-73
2024/01/07 05:07:03;;;;;;;12.75;4.57;;;2.50;99.90;;;;;;5060159;28;20043;-72
2024/01/07 05:09:29;;;;;;;15.45;7.95;;;2.50;99.90;;;;;;5060467;28;20412;-72
2024/01/07 05:11:54;;;;;;;14.00;6.72;;;2.50;99.90;;;;;;5059829;28;20261;-72
2024/01/07 05:14:20;;;;;;;13.30;5.95;;;2.50;99.90;;;;;;5059962;28;20044;-72
2024/01/07 05:16:46;;;;;;;12.20;6.80;;;2.60;99.90;;;;;;5060394;28;20021;-72
2024/01/07 05:19:11;;;;;;;8.57;4.88;;;2.50;99.90;;;;;;5059994;28;20265;-73
2024/01/07 05:21:37;;;;;;;19.58;9.25;;;2.50;99.90;;;;;;5061110;28;20037;-73
2024/01/07 05:24:04;;;;;;;12.35;6.85;;;2.50;99.90;;;;;;5058644;28;20104;-72
2024/01/07 05:26:30;;;;;;;12.65;6.80;;;2.50;99.90;;;;;;5042824;28;20089;-72
2024/01/07 05:28:55;;;;;;;12.13;6.47;;;2.50;99.90;;;;;;5059766;28;20037;-73
2024/01/07 05:31:21;;;;;;;16.15;7.05;;;2.50;99.90;;;;;;5059600;28;20032;-73
2024/01/07 05:33:46;;;;;;;13.60;8.30;;;2.50;99.90;;;;;;5041830;28;20028;-72
2024/01/07 05:36:12;;;;;;;17.63;8.82;;;2.50;99.90;;;;;;5060063;28;20044;-73
2024/01/07 05:38:38;;;;;;;17.75;7.90;;;2.50;99.90;;;;;;5059465;28;20045;-72
2024/01/07 05:41:04;;;;;;;14.65;7.15;;;2.50;99.90;;;;;;5059934;28;20048;-73
2024/01/07 05:43:30;;;;;;;19.05;8.75;;;2.50;99.90;;;;;;5043089;28;20036;-72
2024/01/07 05:45:56;;;;;;;21.27;11.65;;;2.60;99.90;;;;;;5059952;28;20041;-72
2024/01/07 05:48:22;;;;;;;16.95;9.48;;;2.50;99.90;;;;;;5059897;28;20029;-73
2024/01/07 05:50:48;;;;;;;14.95;8.20;;;2.60;99.90;;;;;;5060291;28;20017;-73
2024/01/07 05:53:14;;;;;;;16.15;8.07;;;2.50;99.90;;;;;;5059522;28;20313;-73
2024/01/07 05:55:40;;;;;;;17.98;9.85;;;2.50;99.90;;;;;;5041663;28;20036;-72
2024/01/07 05:58:06;;;;;;;19.10;8.65;;;2.60;99.90;;;;;;5041262;28;20037;-72
2024/01/07 06:00:31;;;;;;;15.90;7.85;;;2.60;99.90;;;;;;5041791;28;20256;-73
2024/01/07 06:02:57;;;;;;;27.73;12.02;;;2.60;99.90;;;;;;5058042;28;20025;-73
2024/01/07 06:05:23;;;;;;;29.50;14.48;;;2.60;99.90;;;;;;5063759;28;20025;-73
2024/01/07 06:07:49;;;;;;;31.90;11.90;;;2.60;99.90;;;;;;5062853;28;20021;-73
2024/01/07 06:10:14;;;;;;;27.75;12.55;;;2.60;99.90;;;;;;5062818;28;20053;-73
2024/01/07 06:12:40;;;;;;;20.90;11.20;;;2.70;99.90;;;;;;5062861;28;20025;-72
2024/01/07 06:15:06;;;;;;;22.98;8.82;;;2.70;99.90;;;;;;5055556;28;20013;-72
2024/01/07 06:17:33;;;;;;;21.77;9.05;;;2.60;99.90;;;;;;5057073;28;20416;-73
2024/01/07 06:19:58;;;;;;;28.27;13.63;;;2.60;99.90;;;;;;5060447;28;20033;-73
2024/01/07 06:22:24;;;;;;;33.38;12.27;;;2.70;99.90;;;;;;5056586;28;20300;-72
2024/01/07 06:24:50;;;;;;;25.40;10.80;;;2.70;99.90;;;;;;5053163;28;20542;-73
2024/01/07 06:27:16;;;;;;;26.20;12.30;;;2.70;99.90;;;;;;5056316;28;20009;-72
2024/01/07 06:29:41;;;;;;;26.98;12.57;;;2.70;99.90;;;;;;5058689;28;20380;-72
2024/01/07 06:32:07;;;;;;;21.77;9.32;;;2.70;99.90;;;;;;5059917;28;20196;-72
2024/01/07 06:34:33;;;;;;;26.35;12.43;;;2.70;99.90;;;;;;5058723;28;20029;-72
2024/01/07 06:36:59;;;;;;;19.10;8.75;;;2.70;99.90;;;;;;5059958;28;20074;-73
2024/01/07 06:39:27;;;;;;;19.00;9.32;;;2.70;99.90;;;;;;5059465;28;20033;-72
2024/01/07 06:41:53;;;;;;;16.73;7.37;;;2.70;99.90;;;;;;5058373;28;20060;-73
2024/01/07 06:44:19;;;;;;;16.98;7.93;;;2.60;99.90;;;;;;5042109;28;20021;-72
2024/01/07 06:46:45;;;;;;;12.68;7.43;;;2.60;99.90;;;;;;5058419;28;20029;-72
2024/01/07 06:49:10;;;;;;;11.57;5.28;;;2.70;99.90;;;;;;5059130;28;20036;-72
2024/01/07 06:51:38;;;;;;;17.77;7.97;;;2.70;99.90;;;;;;5059035;28;20024;-73
2024/01/07 06:54:03;;;;;;;20.40;9.73;;;2.60;99.90;;;;;;5058711;28;20017;-73
2024/01/07 06:56:29;;;;;;;18.65;10.40;;;2.60;99.90;;;;;;5059447;28;20376;-72
2024/01/07 06:58:55;;;;;;;25.02;13.10;;;2.60;99.90;;;;;;5059203;28;20037;-73
2024/01/07 07:01:24;;;;;;;14.15;8.23;;;2.60;99.90;;;;;;5059603;28;20025;-73
2024/01/07 07:03:50;;;;;;;11.18;7.30;;;2.60;99.90;;;;;;5039045;28;20024;-72
2024/01/07 07:06:16;;;;;;;14.07;7.95;;;2.60;99.90;;;;;;5058148;28;20194;-72
2024/01/07 07:08:42;;;;;;;15.40;6.93;;;2.50;99.90;;;;;;5058100;28;20035;-73
2024/01/07 07:11:08;;;;;;;15.27;7.85;;;2.50;99.90;;;;;;5059364;28;20084;-73
2024/01/07 07:13:33;;;;;;;14.50;8.35;;;2.50;99.90;;;;;;5047947;28;20033;-72
2024/01/07 07:15:59;;;;;;;16.90;8.50;;;2.50;99.90;;;;;;5057066;28;20088;-72
2024/01/07 07:18:25;;;;;;;16.63;7.95;;;2.50;99.90;;;;;;5058451;28;20339;-72
2024/01/07 07:20:51;;;;;;;19.55;8.80;;;2.50;99.90;;;;;;5058707;28;20107;-72
2024/01/07 07:23:17;;;;;;;12.60;5.88;;;2.60;99.90;;;;;;5060304;28;20042;-72
2024/01/07 07:25:43;;;;;;;15.98;7.47;;;2.50;99.90;;;;;;5058377;28;20359;-72
2024/01/07 07:28:08;;;;;;;12.60;6.45;;;2.50;99.90;;;;;;5059281;28;20017;-72
2024/01/07 07:30:34;;;;;;;12.55;6.85;;;2.50;99.90;;;;;;5039408;28;20032;-72
2024/01/07 07:33:00;;;;;;;14.93;8.27;;;2.50;99.90;;;;;;5057651;28;20020;-72
2024/01/07 07:35:25;;;;;;;14.98;6.53;;;2.50;99.90;;;;;;5058184;28;20024;-72
2024/01/07 07:37:51;;;;;;;11.32;6.70;;;2.40;99.90;;;;;;5056190;28;20262;-72
2024/01/07 07:40:17;;;;;;;14.30;5.50;;;2.50;99.90;;;;;;5056928;28;20321;-72
2024/01/07 07:42:43;;;;;;;8.77;5.53;;;2.60;99.90;;;;;;5039669;28;20321;-72
2024/01/07 07:45:09;;;;;;;9.88;5.95;;;2.40;99.90;;;;;;5041813;28;20032;-72
2024/01/07 07:47:34;;;;;;;18.20;9.68;;;2.50;99.90;;;;;;5042440;28;20029;-72
2024/01/07 07:50:01;;;;;;;15.45;8.10;;;2.50;99.90;;;;;;5059107;28;20070;-72
2024/01/07 07:52:27;;;;;;;12.93;6.35;;;2.40;99.90;;;;;;5057551;28;20017;-72
2024/01/07 07:54:53;;;;;;;16.58;7.35;;;2.50;99.90;;;;;;5057098;28;20029;-71
2024/01/07 07:57:25;;;;;;;14.40;6.75;;;2.50;99.90;;;;;;5058512;28;20097;-72
2024/01/07 07:59:50;;;;;;;16.70;6.70;;;2.50;99.90;;;;;;5056242;28;20025;-72
2024/01/07 08:02:16;;;;;;;13.20;7.13;;;2.40;99.90;;;;;;5054849;28;20124;-72
2024/01/07 08:04:43;;;;;;;13.25;6.70;;;2.40;99.90;;;;;;5057553;28;20076;-71
2024/01/07 08:07:09;;;;;;;7.32;4.47;;;2.50;99.90;;;;;;5058107;28;20304;-72
2024/01/07 08:09:37;;;;;;;19.27;8.85;;;2.50;99.90;;;;;;5060465;28;20047;-72
2024/01/07 08:12:07;;;;;;;19.43;7.63;;;2.50;99.90;;;;;;5061117;28;20021;-72
2024/01/07 08:14:33;;;;;;;18.17;9.25;;;2.40;99.90;;;;;;5061390;28;20032;-72
2024/01/07 08:16:59;;;;;;;20.35;9.90;;;2.40;99.90;;;;;;5060887;28;20217;-72
2024/01/07 08:19:25;;;;;;;20.08;8.70;;;2.30;99.90;;;;;;5053311;28;20032;-72
2024/01/07 08:21:51;;;;;;;11.30;5.60;;;2.40;99.90;;;;;;5056708;28;20052;-72
2024/01/07 08:24:17;;;;;;;24.65;8.80;;;2.50;99.90;;;;;;5040420;28;20292;-72
2024/01/07 08:26:43;;;;;;;24.35;10.35;;;2.50;99.90;;;;;;5055496;28;20021;-72
2024/01/07 08:29:09;;;;;;;20.08;8.48;;;2.50;99.90;;;;;;5055170;28;20032;-72
2024/01/07 08:31:34;;;;;;;22.10;10.18;;;2.50;99.90;;;;;;5060196;28;20309;-72
2024/01/07 08:34:00;;;;;;;24.63;9.80;;;2.50;99.90;;;;;;5060556;28;20067;-72
2024/01/07 08:36:26;;;;;;;24.35;11.20;;;2.50;99.90;;;;;;5060540;28;20240;-72
2024/01/07 08:38:51;;;;;;;21.67;8.95;;;2.40;99.90;;;;;;5059985;28;20036;-73
2024/01/07 08:41:17;;;;;;;22.50;10.77;;;2.50;99.90;;;;;;5059930;28;20217;-72
2024/01/07 08:43:44;;;;;;;17.25;7.72;;;2.50;99.90;;;;;;5042586;28;20021;-72
2024/01/07 08:46:10;;;;;;;23.45;10.93;;;2.50;99.90;;;;;;5060869;28;20032;-72
2024/01/07 08:48:36;;;;;;;21.33;10.88;;;2.40;99.90;;;;;;5042375;28;20024;-72
2024/01/07 08:51:03;;;;;;;17.00;9.00;;;2.50;99.90;;;;;;5060231;28;20017;-72
2024/01/07 08:53:28;;;;;;;12.00;6.65;;;2.40;99.90;;;;;;5059121;28;20017;-72
2024/01/07 08:55:54;;;;;;;15.50;8.85;;;2.50;99.90;;;;;;5060291;28;20029;-72
2024/01/07 08:58:20;;;;;;;17.38;7.22;;;2.50;99.90;;;;;;5060925;28;20035;-72
2024/01/07 09:00:45;;;;;;;14.23;6.10;;;2.50;99.90;;;;;;5060369;28;20088;-72
2024/01/07 09:03:11;;;;;;;9.65;5.35;;;2.50;99.90;;;;;;5060955;28;20045;-72
2024/01/07 09:05:37;;;;;;;11.15;5.75;;;2.60;99.90;;;;;;5043052;28;20260;-72
2024/01/07 09:08:03;;;;;;;14.73;7.25;;;2.60;99.90;;;;;;5060971;28;20028;-71
2024/01/07 09:10:28;;;;;;;20.08;9.10;;;2.60;99.90;;;;;;5060116;28;20043;-71
2024/01/07 09:12:54;;;;;;;13.20;6.53;;;2.60;99.90;;;;;;5060256;28;20040;-71
2024/01/07 09:15:20;;;;;;;16.40;7.75;;;2.60;99.90;;;;;;5042325;28;20021;-70
2024/01/07 09:17:47;;;;;;;21.90;9.95;;;2.50;99.90;;;;;;5060221;28;20313;-71
2024/01/07 09:20:13;;;;;;;22.38;9.27;;;2.60;99.90;;;;;;5059109;28;20095;-71
2024/01/07 09:22:39;;;;;;;23.63;9.25;;;2.60;99.90;;;;;;5060525;28;20041;-71
2024/01/07 09:25:06;;;;;;;23.23;9.13;;;2.60;99.90;;;;;;5059900;28;20366;-71
2024/01/07 09:27:33;;;;;;;25.90;12.05;;;2.60;99.90;;;;;;5060211;28;20028;-71
2024/01/07 09:29:59;;;;;;;20.45;10.48;;;2.60;99.90;;;;;;5059430;28;20029;-71
2024/01/07 09:32:25;;;;;;;25.10;11.60;;;2.60;99.90;;;;;;5060514;28;20292;-71
2024/01/07 09:34:51;;;;;;;25.20;11.32;;;2.50;99.90;;;;;;5060344;28;20029;-71
2024/01/07 09:37:17;;;;;;;13.52;6.20;;;2.60;99.90;;;;;;5060392;28;20321;-70
2024/01/07 09:39:44;;;;;;;22.42;9.32;;;2.60;99.90;;;;;;5046599;28;20280;-71
2024/01/07 09:42:14;;;;;;;27.85;10.38;;;2.60;99.90;;;;;;5063707;28;20112;-71
2024/01/07 09:44:41;;;;;;;25.05;11.27;;;2.60;99.90;;;;;;5045862;28;20245;-71
2024/01/07 09:47:11;;;;;;;18.10;8.48;;;2.70;99.90;;;;;;5064274;28;20320;-70
2024/01/07 09:49:37;;;;;;;19.70;9.38;;;2.70;99.90;;;;;;5064974;28;20028;-71
2024/01/07 09:52:04;;;;;;;24.35;11.93;;;2.70;99.90;;;;;;5044769;28;20041;-71
2024/01/07 09:54:32;;;;;;;24.50;12.32;;;2.60;99.90;;;;;;5065202;28;20274;-71
2024/01/07 09:57:02;;;;;;;24.48;12.98;;;2.60;99.90;;;;;;5060967;28;20092;-70
2024/01/07 09:59:31;;;;;;;24.90;13.18;;;2.60;99.90;;;;;;5042852;28;20033;-71
2024/01/07 10:01:57;;;;;;;20.08;9.68;;;2.50;99.90;;;;;;5063950;28;20085;-71
2024/01/07 10:04:30;;;;;;;23.67;10.20;;;2.50;99.90;;;;;;5060112;28;20059;-71
2024/01/07 10:06:55;;;;;;;28.05;13.68;;;2.50;99.90;;;;;;5057210;28;20032;-71
2024/01/07 10:09:30;;;;;;;20.63;10.00;;;2.60;99.90;;;;;;5059873;28;20025;-72
2024/01/07 10:11:56;;;;;;;19.70;8.27;;;2.60;99.90;;;;;;5035414;28;20112;-70
2024/01/07 10:14:22;;;;;;;17.55;8.43;;;2.60;99.90;;;;;;5062391;28;20025;-72
2024/01/07 10:16:51;;;;;;;22.20;9.23;;;2.60;99.90;;;;;;5061464;28;20080;-71
2024/01/07 10:19:22;;;;;;;30.75;12.82;;;2.60;99.90;;;;;;5060268;28;20321;-72
2024/01/07 10:22:02;;;;;;;24.30;11.38;;;2.50;99.90;;;;;;5039886;28;20393;-72
2024/01/07 10:24:44;;;;;;;18.30;7.90;;;2.50;99.90;;;;;;5039624;28;20229;-72
2024/01/07 10:27:10;;;;;;;25.15;9.75;;;2.50;99.90;;;;;;5043852;28;20024;-71
2024/01/07 10:29:37;;;;;;;26.52;11.32;;;2.50;99.90;;;;;;5063770;28;20020;-71
2024/01/07 10:32:04;;;;;;;24.60;9.85;;;2.50;99.90;;;;;;5063500;28;20375;-71
2024/01/07 10:34:35;;;;;;;16.58;8.60;;;2.50;99.90;;;;;;5063249;28;20178;-71
2024/01/07 10:37:07;;;;;;;16.65;8.25;;;2.50;99.90;;;;;;5062036;28;20033;-73
2024/01/07 10:39:32;;;;;;;27.13;12.43;;;2.50;99.90;;;;;;5063333;28;20032;-72
2024/01/07 10:41:59;;;;;;;27.85;11.90;;;2.40;99.90;;;;;;5049257;28;20118;-71
2024/01/07 10:44:26;;;;;;;21.63;11.15;;;2.40;99.90;;;;;;5044381;28;20259;-72
2024/01/07 10:46:54;;;;;;;24.23;11.20;;;2.40;99.90;;;;;;5062551;28;20025;-72
2024/01/07 10:49:21;;;;;;;16.92;6.70;;;2.50;99.90;;;;;;5058544;28;20025;-72
2024/01/07 10:52:04;;;;;;;23.73;10.07;;;2.50;99.90;;;;;;5060568;28;20068;-72
2024/01/07 10:54:33;;;;;;;15.10;7.88;;;2.40;99.90;;;;;;5062269;28;20033;-72
2024/01/07 10:57:02;;;;;;;23.60;11.20;;;2.50;99.90;;;;;;5061107;28;20484;-72
2024/01/07 10:59:30;;;;;;;24.50;10.65;;;2.60;99.90;;;;;;5063316;28;20037;-72
2024/01/07 11:01:56;;;;;;;19.10;7.95;;;2.40;99.90;;;;;;5059864;28;20021;-72
2024/01/07 11:04:33;;;;;;;30.25;11.60;;;2.50;99.90;;;;;;5062913;28;20029;-72
2024/01/07 11:07:37;;;;;;;31.13;12.23;;;2.50;99.90;;;;;;5057541;28;20080;-72
2024/01/07 11:10:26;;;;;;;26.10;12.57;;;2.50;99.90;;;;;;5047771;28;20230;-73
2024/01/07 11:12:57;;;;;;;22.48;10.13;;;2.50;99.90;;;;;;5059319;28;20424;-72
2024/01/07 11:15:49;;;;;;;24.13;10.20;;;3.10;99.90;;;;;;5060725;28;20085;-73
2024/01/07 11:18:23;;;;;;;20.70;8.57;;;2.50;99.90;;;;;;5059373;28;20037;-72
2024/01/07 11:20:49;;;;;;;25.33;10.43;;;2.50;99.90;;;;;;5060223;28;20037;-72
2024/01/07 11:23:42;;;;;;;20.08;9.73;;;2.40;99.90;;;;;;5043422;28;20036;-72
2024/01/07 11:26:11;;;;;;;28.42;11.98;;;2.50;99.90;;;;;;5060220;28;20106;-72
2024/01/07 11:28:55;;;;;;;36.20;15.67;;;2.50;99.90;;;;;;5060800;28;20017;-71
2024/01/07 11:31:42;;;;;;;27.17;10.70;;;2.50;99.90;;;;;;5042450;28;20600;-74
2024/01/07 11:34:08;;;;;;;34.97;13.50;;;2.50;99.90;;;;;;5058684;28;20028;-72
2024/01/07 11:36:38;;;;;;;33.75;14.70;;;2.50;99.90;;;;;;5059636;28;20021;-72
2024/01/07 11:39:08;;;;;;;20.52;8.80;;;2.60;99.90;;;;;;5059158;28;20029;-72
2024/01/07 11:41:35;;;;;;;18.73;7.93;;;2.60;99.90;;;;;;5059731;28;20184;-71
2024/01/07 11:44:02;;;;;;;26.15;10.27;;;2.60;99.90;;;;;;5060247;28;20036;-72
2024/01/07 11:46:30;;;;;;;29.85;13.98;;;2.60;99.90;;;;;;5046015;28;20075;-71
2024/01/07 11:48:58;;;;;;;30.20;10.95;;;2.60;99.90;;;;;;5041079;28;20040;-72
2024/01/07 11:51:27;;;;;;;28.70;10.35;;;2.80;99.90;;;;;;5040921;28;20301;-71
2024/01/07 11:53:53;;;;;;;32.17;11.30;;;2.80;99.90;;;;;;5045713;28;20333;-72
2024/01/07 11:56:19;;;;;;;34.20;16.10;;;2.70;99.90;;;;;;5061218;28;20048;-71
2024/01/07 11:58:44;;;;;;;31.45;14.35;;;2.70;99.90;;;;;;5061232;28;20025;-72
2024/01/07 12:01:10;;;;;;;27.70;15.05;;;2.60;99.90;;;;;;5061472;28;20080;-72
2024/01/07 12:03:36;;;;;;;22.35;9.48;;;2.60;99.90;;;;;;5062237;28;20198;-72
2024/01/07 12:06:03;;;;;;;30.73;14.30;;;2.60;99.90;;;;;;5061162;28;20159;-71
2024/01/07 12:08:30;;;;;;;25.40;12.13;;;2.70;99.90;;;;;;5060996;28;20221;-71
2024/01/07 12:10:56;;;;;;;26.88;12.80;;;2.70;99.90;;;;;;5060652;28;20023;-71
2024/01/07 12:13:22;;;;;;;23.23;10.98;;;2.70;99.90;;;;;;5059860;28;20266;-72
2024/01/07 12:15:48;;;;;;;15.13;8.60;;;2.80;99.90;;;;;;5060451;28;20055;-71
2024/01/07 12:18:14;;;;;;;28.27;13.98;;;2.80;99.90;;;;;;5059489;28;20376;-71
2024/01/07 12:20:40;;;;;;;25.05;11.50;;;2.70;99.90;;;;;;5060398;28;20311;-72
2024/01/07 12:23:10;;;;;;;21.10;9.05;;;2.70;99.90;;;;;;5060631;28;20017;-71
2024/01/07 12:25:36;;;;;;;20.85;10.35;;;2.80;99.90;;;;;;5058848;28;20040;-71
2024/01/07 12:28:06;;;;;;;16.17;7.88;;;2.80;99.90;;;;;;5060512;28;20084;-71
2024/01/07 12:30:32;;;;;;;24.10;10.02;;;2.80;99.90;;;;;;5060079;28;20025;-71
2024/01/07 12:32:57;;;;;;;17.30;9.52;;;2.70;99.90;;;;;;5060132;28;20248;-71
2024/01/07 12:35:28;;;;;;;34.95;16.05;;;2.80;99.90;;;;;;5059640;28;20096;-71
2024/01/07 12:37:53;;;;;;;25.33;9.93;;;2.80;99.90;;;;;;5042745;28;20336;-71
2024/01/07 12:40:20;;;;;;;12.55;7.00;;;2.80;99.90;;;;;;5060595;28;20090;-71
2024/01/07 12:42:47;;;;;;;20.33;9.25;;;2.80;99.90;;;;;;5060705;28;20324;-71